createdAt,value
2017-06-23T00:00:09.317Z,24.10
2017-06-23T00:02:36.758Z,24.10
2017-06-23T00:05:04.200Z,24.10
2017-06-23T00:07:32.408Z,24.10
2017-06-23T00:09:59.835Z,24.10
2017-06-23T00:12:27.299Z,24.10
2017-06-23T00:14:54.741Z,24.10
2017-06-23T00:17:22.176Z,24.10
2017-06-23T00:19:49.618Z,24.10
2017-06-23T00:22:17.063Z,24.00
2017-06-23T00:24:44.496Z,24.00
2017-06-23T00:27:11.931Z,23.90
2017-06-23T00:29:39.373Z,23.90
2017-06-23T00:32:06.816Z,23.90
2017-06-23T00:34:34.265Z,23.80
2017-06-23T00:37:01.770Z,23.80
2017-06-23T00:39:29.184Z,23.70
2017-06-23T00:41:56.625Z,23.70
2017-06-23T00:44:24.061Z,23.60
2017-06-23T00:46:51.503Z,23.60
2017-06-23T00:49:18.941Z,23.50
2017-06-23T00:51:47.155Z,23.40
2017-06-23T00:54:14.585Z,23.40
2017-06-23T00:56:42.026Z,23.30
2017-06-23T00:59:10.225Z,23.20
2017-06-23T01:01:37.657Z,23.20
2017-06-23T01:04:05.866Z,23.20
2017-06-23T01:06:33.313Z,23.20
2017-06-23T01:09:00.741Z,23.20
2017-06-23T01:11:28.945Z,23.10
2017-06-23T01:13:56.390Z,23.00
2017-06-23T01:16:23.816Z,23.00
2017-06-23T01:18:51.286Z,22.90
2017-06-23T01:21:19.489Z,22.70
2017-06-23T01:23:46.928Z,22.70
2017-06-23T01:26:15.129Z,22.70
2017-06-23T01:28:42.572Z,22.60
2017-06-23T01:31:10.005Z,22.70
2017-06-23T01:33:38.213Z,22.50
2017-06-23T01:36:05.648Z,22.50
2017-06-23T01:38:33.088Z,22.60
2017-06-23T01:41:00.528Z,22.50
2017-06-23T01:43:28.020Z,22.50
2017-06-23T01:45:55.453Z,22.40
2017-06-23T01:48:22.888Z,22.50
2017-06-23T01:50:50.327Z,22.50
2017-06-23T01:53:17.763Z,22.50
2017-06-23T01:55:47.144Z,22.50
2017-06-23T01:58:15.360Z,22.50
2017-06-23T02:00:42.792Z,22.40
2017-06-23T02:03:10.233Z,22.40
2017-06-23T02:05:38.442Z,22.20
2017-06-23T02:08:05.868Z,22.20
2017-06-23T02:10:33.303Z,22.10
2017-06-23T02:13:00.771Z,22.00
2017-06-23T02:15:28.972Z,21.80
2017-06-23T02:17:56.403Z,21.80
2017-06-23T02:20:24.609Z,21.70
2017-06-23T02:22:52.067Z,21.60
2017-06-23T02:25:19.515Z,21.70
2017-06-23T02:27:46.940Z,21.70
2017-06-23T02:30:15.156Z,21.60
2017-06-23T02:32:42.584Z,21.60
2017-06-23T02:35:10.788Z,21.50
2017-06-23T02:37:38.224Z,21.50
2017-06-23T02:40:05.666Z,21.50
2017-06-23T02:42:33.869Z,21.40
2017-06-23T02:45:01.308Z,21.40
2017-06-23T02:47:28.774Z,21.40
2017-06-23T02:49:56.205Z,21.40
2017-06-23T02:52:23.640Z,21.40
2017-06-23T02:54:51.081Z,21.40
2017-06-23T02:57:18.520Z,21.20
2017-06-23T02:59:45.951Z,21.30
2017-06-23T03:02:13.384Z,21.20
2017-06-23T03:04:40.812Z,21.10
2017-06-23T03:07:08.260Z,21.10
2017-06-23T03:09:35.691Z,21.10
2017-06-23T03:12:03.134Z,21.00
2017-06-23T03:14:30.570Z,21.00
2017-06-23T03:16:58.087Z,21.00
2017-06-23T03:19:25.512Z,21.00
2017-06-23T03:21:52.947Z,20.90
2017-06-23T03:24:20.386Z,20.90
2017-06-23T03:26:47.825Z,21.00
2017-06-23T03:29:15.262Z,20.90
2017-06-23T03:31:42.702Z,20.90
2017-06-23T03:34:10.137Z,20.90
2017-06-23T03:36:38.350Z,20.90
2017-06-23T03:39:05.780Z,20.90
2017-06-23T03:41:33.222Z,20.90
2017-06-23T03:44:01.416Z,21.00
2017-06-23T03:46:28.861Z,21.00
2017-06-23T03:48:56.289Z,21.00
2017-06-23T03:51:23.724Z,21.00
2017-06-23T03:53:51.163Z,21.10
2017-06-23T03:56:18.600Z,21.10
2017-06-23T03:58:46.031Z,21.20
2017-06-23T04:01:14.235Z,21.30
2017-06-23T04:03:41.668Z,21.30
2017-06-23T04:06:09.863Z,21.40
2017-06-23T04:08:37.300Z,21.40
2017-06-23T04:11:05.496Z,21.60
2017-06-23T04:13:32.937Z,21.50
2017-06-23T04:16:00.364Z,21.60
2017-06-23T04:18:27.812Z,21.60
2017-06-23T04:20:55.249Z,21.60
2017-06-23T04:23:22.698Z,21.60
2017-06-23T04:25:50.139Z,21.60
2017-06-23T04:28:17.573Z,21.60
2017-06-23T04:30:45.009Z,21.70
2017-06-23T04:33:12.447Z,21.80
2017-06-23T04:35:39.885Z,21.70
2017-06-23T04:38:07.334Z,21.80
2017-06-23T04:40:34.773Z,21.80
2017-06-23T04:43:02.212Z,21.90
2017-06-23T04:45:29.674Z,21.90
2017-06-23T04:47:57.108Z,21.90
2017-06-23T04:50:24.563Z,21.90
2017-06-23T04:52:51.992Z,21.90
2017-06-23T04:55:19.431Z,22.00
2017-06-23T04:57:46.868Z,22.00
2017-06-23T05:00:14.295Z,21.90
2017-06-23T05:02:42.628Z,21.90
2017-06-23T05:05:10.065Z,21.90
2017-06-23T05:07:37.501Z,21.90
2017-06-23T05:10:05.709Z,22.00
2017-06-23T05:12:33.148Z,22.00
2017-06-23T05:15:00.584Z,22.00
2017-06-23T05:17:28.792Z,22.20
2017-06-23T05:19:56.223Z,22.20
2017-06-23T05:22:23.663Z,22.30
2017-06-23T05:24:51.873Z,22.40
2017-06-23T05:27:19.300Z,22.40
2017-06-23T05:29:47.517Z,22.50
2017-06-23T05:32:14.943Z,22.40
2017-06-23T05:34:42.384Z,22.60
2017-06-23T05:37:10.585Z,22.70
2017-06-23T05:39:38.029Z,22.70
2017-06-23T05:42:05.455Z,22.70
2017-06-23T05:44:32.894Z,22.80
2017-06-23T05:47:00.331Z,22.90
2017-06-23T05:49:27.772Z,22.90
2017-06-23T05:51:55.214Z,23.10
2017-06-23T05:54:22.657Z,23.20
2017-06-23T05:56:50.929Z,23.30
2017-06-23T05:59:19.137Z,23.50
2017-06-23T06:01:46.589Z,23.40
2017-06-23T06:04:14.008Z,23.60
2017-06-23T06:06:41.436Z,23.70
2017-06-23T06:09:08.907Z,23.80
2017-06-23T06:11:36.321Z,23.80
2017-06-23T06:14:03.763Z,23.80
2017-06-23T06:16:31.204Z,23.90
2017-06-23T06:18:58.637Z,23.90
2017-06-23T06:21:26.072Z,24.00
2017-06-23T06:23:53.504Z,24.20
2017-06-23T06:26:20.944Z,24.40
2017-06-23T06:28:48.377Z,24.50
2017-06-23T06:31:15.814Z,24.70
2017-06-23T06:33:43.244Z,24.70
2017-06-23T06:36:10.680Z,24.80
2017-06-23T06:38:38.107Z,24.90
2017-06-23T06:41:06.326Z,24.80
2017-06-23T06:43:33.752Z,24.80
2017-06-23T06:46:01.208Z,24.90
2017-06-23T06:48:28.641Z,24.90
2017-06-23T06:50:56.118Z,25.10
2017-06-23T06:53:23.552Z,25.00
2017-06-23T06:55:50.989Z,25.20
2017-06-23T06:58:18.480Z,25.40
2017-06-23T07:00:46.687Z,25.70
2017-06-23T07:03:14.127Z,25.60
2017-06-23T07:05:41.593Z,25.70
2017-06-23T07:08:09.025Z,25.90
2017-06-23T07:10:36.460Z,25.90
2017-06-23T07:13:03.904Z,25.90
2017-06-23T07:15:31.345Z,26.20
2017-06-23T07:17:58.784Z,26.40
2017-06-23T07:20:26.212Z,26.60
2017-06-23T07:22:53.644Z,26.70
2017-06-23T07:25:21.105Z,26.80
2017-06-23T07:27:48.545Z,26.90
2017-06-23T07:30:15.972Z,27.00
2017-06-23T07:32:43.409Z,26.90
2017-06-23T07:35:10.843Z,26.90
2017-06-23T07:37:38.862Z,26.80
2017-06-23T07:40:06.324Z,26.60
2017-06-23T07:42:33.760Z,26.50
2017-06-23T07:45:01.197Z,26.60
2017-06-23T07:47:28.637Z,26.60
2017-06-23T07:49:56.060Z,26.30
2017-06-23T07:52:23.506Z,26.40
2017-06-23T07:54:50.931Z,26.50
2017-06-23T07:57:18.368Z,26.50
2017-06-23T07:59:45.796Z,26.60
2017-06-23T08:02:13.231Z,26.70
2017-06-23T08:04:40.660Z,26.70
2017-06-23T08:07:08.105Z,26.90
2017-06-23T08:09:35.582Z,26.90
2017-06-23T08:12:03.020Z,26.90
2017-06-23T08:14:30.440Z,27.10
2017-06-23T08:16:57.872Z,27.10
2017-06-23T08:19:25.313Z,27.00
2017-06-23T08:21:52.752Z,27.20
2017-06-23T08:24:20.946Z,27.20
2017-06-23T08:26:48.382Z,27.30
2017-06-23T08:29:16.576Z,27.40
2017-06-23T08:31:44.011Z,27.40
2017-06-23T08:34:11.436Z,27.60
2017-06-23T08:36:38.881Z,27.80
2017-06-23T08:39:06.309Z,28.10
2017-06-23T08:41:33.748Z,28.30
2017-06-23T08:44:01.189Z,28.60
2017-06-23T08:46:29.395Z,29.00
2017-06-23T08:48:56.829Z,29.00
2017-06-23T08:51:24.283Z,28.90
2017-06-23T08:53:52.491Z,29.50
2017-06-23T08:56:19.920Z,29.50
2017-06-23T08:58:47.347Z,29.40
2017-06-23T09:01:14.772Z,29.20
2017-06-23T09:03:42.213Z,28.80
2017-06-23T09:06:09.635Z,28.90
2017-06-23T09:08:37.068Z,28.90
2017-06-23T09:11:04.527Z,29.20
2017-06-23T09:13:31.962Z,29.20
2017-06-23T09:15:59.384Z,29.50
2017-06-23T09:18:26.829Z,29.70
2017-06-23T09:20:54.260Z,30.00
2017-06-23T09:23:21.694Z,30.10
2017-06-23T09:25:49.125Z,30.20
2017-06-23T09:28:16.561Z,30.50
2017-06-23T09:30:43.989Z,30.60
2017-06-23T09:33:11.445Z,30.20
2017-06-23T09:35:38.876Z,30.20
2017-06-23T09:38:06.308Z,30.20
2017-06-23T09:40:33.753Z,30.00
2017-06-23T09:43:01.176Z,30.00
2017-06-23T09:45:28.604Z,29.90
2017-06-23T09:47:56.041Z,29.90
2017-06-23T09:50:23.480Z,30.00
2017-06-23T09:52:50.899Z,29.80
2017-06-23T09:55:19.104Z,30.00
2017-06-23T09:57:46.532Z,29.90
2017-06-23T10:00:13.973Z,29.90
2017-06-23T10:02:41.399Z,29.90
2017-06-23T10:05:08.828Z,30.00
2017-06-23T10:07:36.265Z,29.70
2017-06-23T10:10:04.461Z,30.20
2017-06-23T10:12:31.892Z,30.20
2017-06-23T10:14:59.325Z,30.30
2017-06-23T10:17:26.768Z,30.20
2017-06-23T10:19:54.204Z,29.90
2017-06-23T10:22:21.676Z,30.10
2017-06-23T10:24:49.104Z,30.40
2017-06-23T10:27:16.541Z,30.50
2017-06-23T10:29:44.800Z,29.60
2017-06-23T10:32:13.008Z,29.80
2017-06-23T10:34:40.432Z,29.80
2017-06-23T10:37:08.635Z,29.70
2017-06-23T10:39:36.165Z,29.60
2017-06-23T10:42:03.952Z,29.50
2017-06-23T10:44:32.148Z,29.50
2017-06-23T10:46:59.588Z,29.50
2017-06-23T10:49:27.012Z,29.40
2017-06-23T10:51:54.440Z,29.50
2017-06-23T10:54:21.878Z,29.90
2017-06-23T10:56:49.362Z,30.00
2017-06-23T10:59:16.776Z,30.30
2017-06-23T11:01:44.208Z,30.40
2017-06-23T11:04:12.424Z,30.60
2017-06-23T11:06:39.852Z,30.60
2017-06-23T11:09:07.293Z,30.40
2017-06-23T11:11:35.568Z,30.20
2017-06-23T11:14:03.788Z,30.20
2017-06-23T11:16:31.224Z,30.10
2017-06-23T11:18:58.647Z,30.30
2017-06-23T11:21:26.081Z,30.60
2017-06-23T11:23:53.512Z,30.70
2017-06-23T11:26:20.953Z,30.70
2017-06-23T11:28:48.371Z,30.80
2017-06-23T11:31:15.808Z,30.70
2017-06-23T11:33:43.245Z,30.70
2017-06-23T11:36:10.677Z,31.10
2017-06-23T11:38:38.108Z,31.10
2017-06-23T11:41:06.308Z,31.60
2017-06-23T11:43:33.737Z,31.60
2017-06-23T11:46:01.940Z,31.60
2017-06-23T11:48:29.369Z,31.60
2017-06-23T11:50:57.571Z,31.50
2017-06-23T11:53:25.000Z,31.50
2017-06-23T11:55:53.192Z,31.20
2017-06-23T11:58:20.624Z,31.20
2017-06-23T12:00:48.821Z,31.30
2017-06-23T12:03:16.251Z,31.30
2017-06-23T12:05:43.681Z,31.10
2017-06-23T12:08:11.125Z,30.80
2017-06-23T12:10:38.603Z,30.30
2017-06-23T12:13:06.037Z,30.30
2017-06-23T12:15:33.473Z,30.20
2017-06-23T12:18:00.896Z,30.00
2017-06-23T12:20:28.328Z,29.80
2017-06-23T12:22:55.812Z,29.90
2017-06-23T12:25:23.259Z,29.70
2017-06-23T12:27:50.684Z,29.60
2017-06-23T12:30:18.144Z,29.60
2017-06-23T12:32:45.573Z,29.50
2017-06-23T12:35:13.003Z,29.50
2017-06-23T12:37:41.200Z,29.50
2017-06-23T12:40:08.632Z,29.50
2017-06-23T12:42:36.833Z,29.50
2017-06-23T12:45:04.252Z,29.50
2017-06-23T12:47:31.688Z,29.50
2017-06-23T12:49:59.260Z,29.50
2017-06-23T12:52:26.688Z,29.40
2017-06-23T12:54:54.193Z,29.30
2017-06-23T12:57:22.421Z,29.20
2017-06-23T12:59:49.832Z,29.20
2017-06-23T13:02:17.263Z,29.20
2017-06-23T13:04:44.697Z,29.10
2017-06-23T13:07:12.140Z,29.00
2017-06-23T13:09:39.563Z,29.10
2017-06-23T13:12:07.028Z,29.00
2017-06-23T13:14:34.456Z,29.10
2017-06-23T13:17:01.899Z,29.30
2017-06-23T13:19:29.324Z,29.20
2017-06-23T13:21:56.760Z,29.20
2017-06-23T13:24:24.197Z,29.10
2017-06-23T13:26:52.449Z,29.10
2017-06-23T13:29:19.881Z,29.10
2017-06-23T13:31:47.318Z,29.10
2017-06-23T13:34:14.747Z,29.20
2017-06-23T13:36:42.180Z,29.20
2017-06-23T13:39:09.620Z,29.20
2017-06-23T13:41:37.052Z,29.20
2017-06-23T13:44:04.480Z,29.20
2017-06-23T13:46:31.904Z,29.20
2017-06-23T13:48:59.368Z,29.30
2017-06-23T13:51:27.560Z,29.10
2017-06-23T13:53:55.060Z,29.10
2017-06-23T13:56:22.512Z,29.20
2017-06-23T13:58:49.940Z,29.20
2017-06-23T14:01:17.373Z,29.20
2017-06-23T14:03:45.610Z,28.90
2017-06-23T14:06:13.047Z,28.90
2017-06-23T14:08:40.505Z,29.00
2017-06-23T14:11:07.935Z,29.00
2017-06-23T14:13:35.359Z,29.10
2017-06-23T14:16:02.794Z,29.10
2017-06-23T14:18:30.229Z,29.10
2017-06-23T14:20:57.660Z,29.20
2017-06-23T14:23:25.089Z,29.10
2017-06-23T14:25:52.526Z,29.10
2017-06-23T14:28:19.956Z,29.20
2017-06-23T14:30:47.376Z,29.20
2017-06-23T14:33:15.587Z,29.30
2017-06-23T14:35:43.048Z,29.20
2017-06-23T14:38:10.526Z,29.10
2017-06-23T14:40:37.947Z,29.10
2017-06-23T14:43:05.388Z,29.10
2017-06-23T14:45:32.816Z,29.20
2017-06-23T14:48:00.253Z,29.10
2017-06-23T14:50:27.685Z,29.10
2017-06-23T14:52:55.120Z,29.20
2017-06-23T14:55:22.548Z,29.30
2017-06-23T14:57:49.989Z,29.20
2017-06-23T15:00:17.460Z,29.20
2017-06-23T15:02:44.901Z,29.20
2017-06-23T15:05:12.333Z,29.10
2017-06-23T15:07:39.793Z,29.00
2017-06-23T15:10:07.220Z,29.00
2017-06-23T15:12:34.648Z,28.90
2017-06-23T15:15:02.851Z,28.90
2017-06-23T15:17:30.272Z,28.90
2017-06-23T15:19:57.720Z,28.90
2017-06-23T15:22:25.144Z,28.80
2017-06-23T15:24:52.579Z,28.80
2017-06-23T15:27:20.050Z,28.80
2017-06-23T15:29:47.488Z,28.80
2017-06-23T15:32:14.912Z,28.90
2017-06-23T15:34:42.349Z,28.90
2017-06-23T15:37:09.780Z,28.80
2017-06-23T15:39:37.281Z,28.90
2017-06-23T15:42:04.730Z,28.70
2017-06-23T15:44:32.155Z,28.70
2017-06-23T15:46:59.605Z,28.60
2017-06-23T15:49:27.031Z,28.70
2017-06-23T15:51:54.465Z,28.70
2017-06-23T15:54:21.892Z,28.70
2017-06-23T15:56:49.333Z,28.60
2017-06-23T15:59:16.825Z,28.60
2017-06-23T16:01:44.340Z,28.60
2017-06-23T16:04:11.776Z,28.50
2017-06-23T16:06:39.204Z,28.50
2017-06-23T16:09:06.629Z,28.40
2017-06-23T16:11:34.072Z,28.40
2017-06-23T16:14:01.496Z,28.50
2017-06-23T16:16:28.927Z,28.50
2017-06-23T16:18:56.364Z,28.40
2017-06-23T16:21:23.790Z,28.30
2017-06-23T16:23:51.231Z,28.30
2017-06-23T16:26:18.655Z,28.30
2017-06-23T16:28:46.092Z,28.30
2017-06-23T16:31:13.523Z,28.30
2017-06-23T16:33:40.962Z,28.30
2017-06-23T16:36:08.390Z,28.30
2017-06-23T16:38:35.819Z,28.20
2017-06-23T16:41:03.248Z,28.20
2017-06-23T16:43:30.684Z,28.30
2017-06-23T16:45:58.113Z,28.20
2017-06-23T16:48:25.541Z,28.30
2017-06-23T16:50:52.980Z,28.20
2017-06-23T16:53:20.427Z,28.20
2017-06-23T16:55:47.840Z,28.10
2017-06-23T16:58:15.268Z,28.20
2017-06-23T17:00:42.708Z,28.20
2017-06-23T17:03:10.141Z,28.10
2017-06-23T17:05:37.621Z,28.10
2017-06-23T17:08:05.030Z,28.00
2017-06-23T17:10:33.232Z,28.00
2017-06-23T17:13:00.662Z,28.00
2017-06-23T17:15:28.878Z,27.90
2017-06-23T17:17:56.293Z,27.90
2017-06-23T17:20:24.484Z,27.90
2017-06-23T17:22:51.920Z,27.90
2017-06-23T17:25:20.120Z,27.70
2017-06-23T17:27:47.553Z,27.70
2017-06-23T17:30:15.750Z,27.60
2017-06-23T17:32:43.185Z,27.50
2017-06-23T17:35:11.380Z,27.50
2017-06-23T17:37:38.813Z,27.50
2017-06-23T17:40:07.008Z,27.40
2017-06-23T17:42:34.453Z,27.40
2017-06-23T17:45:02.641Z,27.30
2017-06-23T17:47:30.072Z,27.30
2017-06-23T17:49:58.268Z,27.20
2017-06-23T17:52:25.700Z,27.20
2017-06-23T17:54:53.133Z,27.10
2017-06-23T17:57:20.565Z,27.10
2017-06-23T17:59:47.995Z,27.10
2017-06-23T18:02:15.423Z,27.00
2017-06-23T18:04:42.848Z,26.90
2017-06-23T18:07:10.285Z,26.90
2017-06-23T18:09:37.736Z,26.90
2017-06-23T18:12:05.166Z,26.80
2017-06-23T18:14:32.601Z,26.70
2017-06-23T18:17:00.037Z,26.70
2017-06-23T18:19:27.466Z,26.70
2017-06-23T18:21:54.905Z,26.70
2017-06-23T18:24:22.328Z,26.70
2017-06-23T18:26:49.764Z,26.60
2017-06-23T18:29:17.180Z,26.60
2017-06-23T18:31:44.618Z,26.50
2017-06-23T18:34:12.036Z,26.50
2017-06-23T18:36:39.464Z,26.40
2017-06-23T18:39:06.908Z,26.40
2017-06-23T18:41:34.329Z,26.30
2017-06-23T18:44:01.756Z,26.20
2017-06-23T18:46:29.186Z,26.20
2017-06-23T18:48:56.621Z,26.10
2017-06-23T18:51:24.044Z,26.00
2017-06-23T18:53:51.481Z,25.90
2017-06-23T18:56:18.912Z,25.90
2017-06-23T18:58:46.340Z,25.70
2017-06-23T19:01:13.765Z,25.80
2017-06-23T19:03:41.197Z,25.70
2017-06-23T19:06:08.657Z,25.50
2017-06-23T19:08:36.093Z,25.40
2017-06-23T19:11:03.512Z,25.40
2017-06-23T19:13:31.716Z,25.20
2017-06-23T19:15:59.140Z,25.20
2017-06-23T19:18:26.592Z,25.20
2017-06-23T19:20:54.021Z,25.10
2017-06-23T19:23:21.451Z,25.10
2017-06-23T19:25:48.880Z,25.00
2017-06-23T19:28:16.305Z,24.90
2017-06-23T19:30:43.735Z,24.90
2017-06-23T19:33:11.176Z,24.80
2017-06-23T19:35:38.601Z,24.70
2017-06-23T19:38:06.024Z,24.60
2017-06-23T19:40:33.456Z,24.60
2017-06-23T19:43:00.889Z,24.50
2017-06-23T19:45:28.339Z,24.40
2017-06-23T19:47:55.759Z,24.40
2017-06-23T19:50:23.188Z,24.30
2017-06-23T19:52:50.622Z,24.40
2017-06-23T19:55:18.052Z,24.30
2017-06-23T19:57:45.760Z,24.30
2017-06-23T20:00:13.205Z,24.20
2017-06-23T20:02:40.636Z,24.10
2017-06-23T20:05:08.064Z,24.10
2017-06-23T20:07:35.503Z,23.90
2017-06-23T20:10:02.925Z,23.90
2017-06-23T20:12:30.363Z,23.80
2017-06-23T20:14:57.789Z,23.80
2017-06-23T20:17:25.225Z,23.70
2017-06-23T20:19:52.653Z,23.60
2017-06-23T20:22:20.076Z,23.50
2017-06-23T20:24:47.517Z,23.40
2017-06-23T20:27:14.940Z,23.50
2017-06-23T20:29:42.374Z,23.40
2017-06-23T20:32:09.797Z,23.30
2017-06-23T20:34:38.036Z,23.20
2017-06-23T20:37:05.448Z,23.20
2017-06-23T20:39:32.888Z,23.10
2017-06-23T20:42:00.316Z,23.00
2017-06-23T20:44:27.750Z,23.00
2017-06-23T20:46:55.172Z,22.90
2017-06-23T20:49:22.604Z,22.90
2017-06-23T20:51:50.811Z,22.60
2017-06-23T20:54:18.233Z,22.60
2017-06-23T20:56:46.509Z,22.40
2017-06-23T20:59:13.932Z,22.40
2017-06-23T21:01:41.363Z,22.40
2017-06-23T21:04:08.882Z,22.30
2017-06-23T21:06:37.083Z,22.20
2017-06-23T21:09:04.532Z,22.20
2017-06-23T21:11:31.959Z,22.20
2017-06-23T21:13:59.419Z,22.10
2017-06-23T21:16:26.839Z,22.10
2017-06-23T21:18:54.387Z,22.10
2017-06-23T21:21:21.792Z,22.00
2017-06-23T21:23:50.028Z,21.90
2017-06-23T21:26:17.481Z,21.90
2017-06-23T21:28:44.916Z,21.90
2017-06-23T21:31:12.345Z,21.90
2017-06-23T21:33:39.816Z,21.80
2017-06-23T21:36:07.249Z,21.80
2017-06-23T21:38:34.676Z,21.80
2017-06-23T21:41:14.749Z,21.70
2017-06-23T21:43:43.264Z,21.70
2017-06-23T21:46:10.692Z,21.60
2017-06-23T21:48:38.126Z,21.60
2017-06-23T21:51:05.636Z,21.40
2017-06-23T21:53:33.066Z,21.40
2017-06-23T21:56:00.512Z,21.30
2017-06-23T21:58:27.924Z,21.20
2017-06-23T22:00:55.447Z,21.10
2017-06-23T22:03:22.897Z,21.10
2017-06-23T22:05:51.128Z,21.00
2017-06-23T22:08:18.575Z,20.90
2017-06-23T22:10:46.008Z,20.90
2017-06-23T22:13:13.424Z,20.80
2017-06-23T22:15:40.856Z,20.70
2017-06-23T22:18:08.299Z,20.60
2017-06-23T22:20:35.715Z,20.70
2017-06-23T22:23:03.915Z,20.70
2017-06-23T22:25:31.340Z,20.70
2017-06-23T22:27:58.780Z,20.60
2017-06-23T22:30:26.259Z,20.50
2017-06-23T22:32:54.460Z,20.50
2017-06-23T22:35:21.888Z,20.50
2017-06-23T22:37:49.326Z,20.50
2017-06-23T22:40:16.750Z,20.50
2017-06-23T22:42:44.172Z,20.40
2017-06-23T22:45:12.438Z,20.30
2017-06-23T22:47:40.639Z,20.30
2017-06-23T22:50:08.072Z,20.30
2017-06-23T22:52:36.269Z,20.30
2017-06-23T22:55:03.704Z,20.30
2017-06-23T22:57:31.901Z,20.20
2017-06-23T22:59:59.336Z,20.20
2017-06-23T23:02:27.540Z,20.20
2017-06-23T23:04:54.965Z,20.20
2017-06-23T23:07:23.165Z,20.10
2017-06-23T23:09:50.594Z,20.10
2017-06-23T23:12:18.785Z,20.00
2017-06-23T23:14:46.212Z,20.00
2017-06-23T23:17:13.640Z,19.90
2017-06-23T23:19:41.072Z,19.90
2017-06-23T23:22:08.508Z,19.90
2017-06-23T23:24:35.957Z,19.80
2017-06-23T23:27:04.156Z,19.70
2017-06-23T23:29:31.580Z,19.70
2017-06-23T23:31:59.779Z,19.80
2017-06-23T23:34:27.204Z,19.80
2017-06-23T23:36:54.629Z,19.80
2017-06-23T23:39:22.056Z,19.70
2017-06-23T23:41:49.492Z,19.80
2017-06-23T23:44:16.921Z,19.80
2017-06-23T23:46:44.357Z,19.70
2017-06-23T23:49:11.780Z,19.80
2017-06-23T23:51:39.212Z,19.80
2017-06-23T23:54:07.405Z,19.80
2017-06-23T23:56:34.831Z,19.70
2017-06-23T23:59:03.024Z,19.70
